EZY54YM EGPH-LEMG
Flight info
| Callsign | EZY54YM |
|---|---|
| Flight time | N/A |
| Altitude | 35000 |
| Route | GOSAM P600 FENIK L612 NAVSO DCT ADZOP DCT EGTOC DCT NOKIN N862 KARNO/N0437F360 DCT ALHUP DCT ABWIV DCT PACSE DCT TONQU DCT SALCO/N0437F370 DCT GOPIN DCT DELOG DCT CRISA DCT VULPE |
| Aircraft | A320/M-SDE2E3FGHIJ1RWXYZ/LB1 |
Departure
| Time | 2026-04-26 09:59 |
|---|---|
| Airport | Edinburgh Airport (EGPH) |
Arrival
| Time | N/A |
|---|---|
| Airport | Málaga-Costa del Sol Airport (LEMG) |
| Time | Latitude | Longitude | Altitude | Speed | Heading |
|---|---|---|---|---|---|
| 2026-04-26 09:22 | 55.94742 | -3.36875 | 113 ft | 0 kts | 269° |
| 2026-04-26 09:47 | 55.94742 | -3.36859 | 116 ft | 3 kts | 270° |
| 2026-04-26 09:47 | 55.94741 | -3.36824 | 115 ft | 3 kts | 276° |
| 2026-04-26 09:48 | 55.94738 | -3.36788 | 112 ft | 3 kts | 286° |
| 2026-04-26 09:48 | 55.94731 | -3.36756 | 113 ft | 3 kts | 308° |
| 2026-04-26 09:48 | 55.94719 | -3.36736 | 114 ft | 2 kts | 349° |
| 2026-04-26 09:48 | 55.94714 | -3.36734 | 114 ft | 0 kts | 356° |
| 2026-04-26 09:51 | 55.94720 | -3.36735 | 113 ft | 5 kts | 356° |
| 2026-04-26 09:52 | 55.94781 | -3.36771 | 115 ft | 7 kts | 335° |
| 2026-04-26 09:52 | 55.94909 | -3.36819 | 114 ft | 13 kts | 330° |
| 2026-04-26 09:52 | 55.94970 | -3.36762 | 115 ft | 10 kts | 65° |
| 2026-04-26 09:53 | 55.95005 | -3.36664 | 116 ft | 8 kts | 59° |
| 2026-04-26 09:53 | 55.95033 | -3.36579 | 114 ft | 8 kts | 58° |
| 2026-04-26 09:53 | 55.95066 | -3.36484 | 114 ft | 9 kts | 59° |
| 2026-04-26 09:53 | 55.95095 | -3.36397 | 115 ft | 7 kts | 58° |
| 2026-04-26 09:54 | 55.95136 | -3.36275 | 114 ft | 14 kts | 59° |
| 2026-04-26 09:54 | 55.95186 | -3.36130 | 114 ft | 14 kts | 58° |
| 2026-04-26 09:54 | 55.95240 | -3.35965 | 112 ft | 16 kts | 59° |
| 2026-04-26 09:54 | 55.95302 | -3.35789 | 114 ft | 17 kts | 58° |
| 2026-04-26 09:55 | 55.95338 | -3.35678 | 115 ft | 8 kts | 59° |
| 2026-04-26 09:55 | 55.95364 | -3.35600 | 113 ft | 7 kts | 58° |
| 2026-04-26 09:55 | 55.95398 | -3.35502 | 115 ft | 8 kts | 58° |
| 2026-04-26 09:55 | 55.95414 | -3.35456 | 112 ft | 0 kts | 58° |
| 2026-04-26 09:56 | 55.95423 | -3.35433 | 116 ft | 6 kts | 54° |
| 2026-04-26 09:56 | 55.95461 | -3.35408 | 116 ft | 6 kts | 354° |
| 2026-04-26 09:56 | 55.95517 | -3.35459 | 115 ft | 10 kts | 329° |
| 2026-04-26 09:57 | 55.95569 | -3.35539 | 113 ft | 10 kts | 285° |
| 2026-04-26 09:57 | 55.95549 | -3.35627 | 112 ft | 0 kts | 238° |
| 2026-04-26 09:58 | 55.95495 | -3.35787 | 113 ft | 48 kts | 239° |
| 2026-04-26 09:58 | 55.95191 | -3.36686 | 114 ft | 117 kts | 239° |
| 2026-04-26 09:58 | 55.94678 | -3.38215 | 172 ft | 162 kts | 239° |
| 2026-04-26 09:59 | 55.94107 | -3.39878 | 837 ft | 155 kts | 238° |
| 2026-04-26 09:59 | 55.93734 | -3.40969 | 1257 ft | 156 kts | 237° |
| 2026-04-26 09:59 | 55.92901 | -3.43354 | 1733 ft | 182 kts | 236° |
| 2026-04-26 09:59 | 55.92188 | -3.45365 | 2031 ft | 203 kts | 237° |
| 2026-04-26 10:00 | 55.91386 | -3.47634 | 2283 ft | 229 kts | 237° |
| 2026-04-26 10:00 | 55.90567 | -3.50224 | 2779 ft | 248 kts | 249° |
| 2026-04-26 10:00 | 55.90203 | -3.53255 | 3596 ft | 252 kts | 259° |
| 2026-04-26 10:00 | 55.90010 | -3.55302 | 4188 ft | 254 kts | 259° |
| 2026-04-26 10:01 | 55.89605 | -3.59432 | 5337 ft | 258 kts | 259° |
| 2026-04-26 10:01 | 55.89289 | -3.62589 | 6192 ft | 260 kts | 259° |
| 2026-04-26 10:01 | 55.88972 | -3.65768 | 7037 ft | 262 kts | 259° |
| 2026-04-26 10:01 | 55.88649 | -3.68970 | 7837 ft | 264 kts | 258° |
| 2026-04-26 10:02 | 55.88320 | -3.72203 | 8635 ft | 267 kts | 258° |
| 2026-04-26 10:02 | 55.88095 | -3.74406 | 9174 ft | 268 kts | 258° |
| 2026-04-26 10:02 | 55.87761 | -3.77695 | 9961 ft | 271 kts | 257° |
| 2026-04-26 10:02 | 55.87423 | -3.81032 | 10577 ft | 281 kts | 257° |
| 2026-04-26 10:03 | 55.87065 | -3.84591 | 10767 ft | 304 kts | 258° |
| 2026-04-26 10:03 | 55.86688 | -3.88393 | 11166 ft | 317 kts | 258° |
| 2026-04-26 10:03 | 55.86304 | -3.92286 | 11820 ft | 322 kts | 258° |
| 2026-04-26 10:03 | 55.85913 | -3.96225 | 12529 ft | 325 kts | 258° |
| 2026-04-26 10:04 | 55.85512 | -4.00212 | 13214 ft | 329 kts | 258° |
| 2026-04-26 10:04 | 55.85104 | -4.04240 | 13905 ft | 332 kts | 258° |
| 2026-04-26 10:04 | 55.84687 | -4.08302 | 14513 ft | 336 kts | 256° |
| 2026-04-26 10:04 | 55.83896 | -4.12201 | 15117 ft | 337 kts | 240° |
| 2026-04-26 10:05 | 55.82466 | -4.15497 | 15723 ft | 339 kts | 223° |
| 2026-04-26 10:05 | 55.80566 | -4.18012 | 16335 ft | 342 kts | 216° |
| 2026-04-26 10:05 | 55.78592 | -4.20405 | 16940 ft | 345 kts | 216° |
| 2026-04-26 10:05 | 55.76611 | -4.22829 | 17547 ft | 347 kts | 216° |
| 2026-04-26 10:06 | 55.74494 | -4.24935 | 18131 ft | 352 kts | 204° |
| 2026-04-26 10:06 | 55.72107 | -4.26068 | 18689 ft | 360 kts | 190° |
| 2026-04-26 10:06 | 55.69579 | -4.26035 | 19155 ft | 369 kts | 175° |
| 2026-04-26 10:06 | 55.67085 | -4.24769 | 19632 ft | 379 kts | 159° |
| 2026-04-26 10:07 | 55.64704 | -4.22673 | 20133 ft | 384 kts | 156° |
| 2026-04-26 10:07 | 55.62344 | -4.20410 | 20628 ft | 388 kts | 155° |